createdAt,value
2019-04-09T00:02:29.707Z,5.08
2019-04-09T00:04:56.499Z,4.93
2019-04-09T00:07:23.118Z,5.00
2019-04-09T00:09:49.935Z,4.99
2019-04-09T00:12:17.674Z,4.82
2019-04-09T00:14:44.609Z,4.82
2019-04-09T00:17:11.515Z,4.80
2019-04-09T00:19:39.136Z,4.76
2019-04-09T00:22:06.014Z,4.65
2019-04-09T00:24:33.102Z,4.66
2019-04-09T00:26:59.975Z,4.66
2019-04-09T00:29:27.003Z,4.60
2019-04-09T00:31:53.870Z,4.65
2019-04-09T00:34:20.509Z,4.48
2019-04-09T00:36:47.209Z,4.43
2019-04-09T00:39:14.384Z,4.41
2019-04-09T00:41:42.121Z,4.42
2019-04-09T00:44:08.976Z,4.38
2019-04-09T00:46:36.064Z,4.24
2019-04-09T00:49:03.067Z,4.28
2019-04-09T00:51:30.979Z,4.33
2019-04-09T00:53:58.650Z,4.29
2019-04-09T00:56:25.470Z,4.34
2019-04-09T00:58:52.809Z,4.32
2019-04-09T01:01:20.133Z,4.26
2019-04-09T01:03:46.831Z,4.18
2019-04-09T01:06:14.507Z,4.22
2019-04-09T01:08:41.333Z,4.27
2019-04-09T01:11:08.035Z,4.17
2019-04-09T01:13:35.090Z,4.23
2019-04-09T01:16:01.953Z,4.08
2019-04-09T01:18:29.423Z,4.22
2019-04-09T01:20:56.408Z,4.11
2019-04-09T01:23:23.044Z,4.09
2019-04-09T01:25:55.838Z,4.09
2019-04-09T01:28:31.093Z,4.11
2019-04-09T01:31:03.616Z,4.05
2019-04-09T01:33:49.988Z,4.15
2019-04-09T01:36:36.003Z,4.20
2019-04-09T01:39:20.731Z,4.01
2019-04-09T01:42:16.412Z,4.20
2019-04-09T01:44:54.544Z,4.34
2019-04-09T01:47:38.525Z,4.36
2019-04-09T01:50:15.289Z,4.27
2019-04-09T01:52:46.959Z,4.29
2019-04-09T01:55:49.549Z,4.13
2019-04-09T01:58:36.025Z,4.06
2019-04-09T02:01:23.850Z,4.02
2019-04-09T02:03:58.203Z,3.92
2019-04-09T02:06:35.270Z,3.99
2019-04-09T02:09:18.208Z,4.06
2019-04-09T02:12:04.658Z,4.08
2019-04-09T02:14:41.170Z,4.01
2019-04-09T02:17:33.524Z,4.00
2019-04-09T02:20:30.863Z,3.94
2019-04-09T02:23:23.527Z,4.00
2019-04-09T02:26:10.437Z,3.92
2019-04-09T02:28:46.669Z,3.96
2019-04-09T02:31:42.850Z,3.95
2019-04-09T02:34:29.553Z,3.85
2019-04-09T02:37:28.223Z,3.86
2019-04-09T02:40:16.323Z,3.78
2019-04-09T02:43:01.944Z,3.65
2019-04-09T02:45:41.449Z,3.70
2019-04-09T02:48:27.518Z,3.56
2019-04-09T02:51:01.973Z,3.52
2019-04-09T02:53:48.805Z,3.49
2019-04-09T02:56:28.210Z,3.44
2019-04-09T02:59:03.474Z,3.46
2019-04-09T03:01:47.100Z,3.38
2019-04-09T03:04:38.342Z,3.38
2019-04-09T03:07:24.300Z,3.34
2019-04-09T03:10:01.893Z,3.30
2019-04-09T03:12:48.295Z,3.24
2019-04-09T03:15:24.121Z,3.26
2019-04-09T03:17:58.665Z,3.20
2019-04-09T03:20:43.895Z,3.22
2019-04-09T03:23:18.585Z,3.24
2019-04-09T03:26:23.158Z,3.21
2019-04-09T03:29:08.145Z,3.23
2019-04-09T03:31:58.394Z,3.26
2019-04-09T03:34:37.218Z,3.25
2019-04-09T03:37:14.688Z,3.28
2019-04-09T03:40:07.098Z,3.26
2019-04-09T03:42:53.156Z,3.04
2019-04-09T03:45:42.944Z,3.00
2019-04-09T03:48:24.422Z,2.98
2019-04-09T03:51:19.873Z,2.93
2019-04-09T03:53:55.531Z,2.91
2019-04-09T03:56:43.878Z,2.95
2019-04-09T03:59:27.220Z,3.05
2019-04-09T04:02:22.796Z,3.02
2019-04-09T04:05:18.428Z,3.02
2019-04-09T04:08:17.364Z,3.05
2019-04-09T04:11:03.688Z,3.07
2019-04-09T04:13:49.931Z,3.06
2019-04-09T04:16:55.121Z,3.09
2019-04-09T04:19:35.468Z,3.04
2019-04-09T04:22:21.859Z,3.05
2019-04-09T04:25:07.931Z,3.04
2019-04-09T04:27:54.471Z,3.07
2019-04-09T04:30:39.189Z,3.03
2019-04-09T04:33:15.332Z,3.06
2019-04-09T04:36:00.494Z,3.06
2019-04-09T04:38:40.269Z,3.11
2019-04-09T04:41:28.761Z,3.17
2019-04-09T04:44:16.546Z,3.28
2019-04-09T04:47:01.601Z,3.19
2019-04-09T04:49:46.704Z,3.18
2019-04-09T04:52:35.801Z,3.17
2019-04-09T04:55:12.470Z,3.17
2019-04-09T04:57:54.435Z,3.17
2019-04-09T05:00:41.532Z,3.22
2019-04-09T05:03:26.662Z,3.23
2019-04-09T05:06:22.249Z,3.21
2019-04-09T05:09:02.032Z,3.21
2019-04-09T05:11:44.000Z,3.24
2019-04-09T05:14:36.519Z,3.26
2019-04-09T05:17:26.673Z,3.30
2019-04-09T05:20:16.021Z,3.29
2019-04-09T05:23:03.317Z,3.28
2019-04-09T05:25:39.707Z,3.31
2019-04-09T05:28:14.328Z,3.31
2019-04-09T05:31:12.664Z,3.41
2019-04-09T05:34:03.708Z,3.42
2019-04-09T05:36:40.905Z,3.45
2019-04-09T05:39:22.265Z,3.51
2019-04-09T05:42:08.756Z,3.62
2019-04-09T05:44:45.580Z,3.64
2019-04-09T05:47:34.819Z,3.61
2019-04-09T05:50:20.171Z,3.64
2019-04-09T05:52:57.589Z,3.69
2019-04-09T05:55:47.300Z,3.73
2019-04-09T05:58:25.548Z,3.75
2019-04-09T06:01:14.838Z,3.92
2019-04-09T06:03:47.889Z,3.96
2019-04-09T06:06:32.682Z,3.95
2019-04-09T06:09:18.050Z,4.01
2019-04-09T06:11:44.740Z,4.13
2019-04-09T06:14:11.502Z,4.19
2019-04-09T06:16:38.329Z,4.21
2019-04-09T06:19:05.155Z,4.23
2019-04-09T06:21:37.351Z,4.27
2019-04-09T06:24:00.609Z,4.35
2019-04-09T06:26:27.273Z,4.39
2019-04-09T06:28:54.718Z,4.48
2019-04-09T06:31:22.283Z,4.59
2019-04-09T06:34:16.243Z,4.73
2019-04-09T06:36:50.036Z,4.77
2019-04-09T06:39:24.958Z,4.87
2019-04-09T06:41:58.402Z,4.94
2019-04-09T06:44:41.200Z,5.05
2019-04-09T06:47:33.516Z,5.10
2019-04-09T06:50:32.891Z,5.19
2019-04-09T06:53:06.705Z,5.30
2019-04-09T06:55:39.834Z,5.36
2019-04-09T06:58:26.214Z,5.50
2019-04-09T07:01:11.090Z,5.68
2019-04-09T07:03:48.729Z,5.69
2019-04-09T07:06:42.112Z,5.66
2019-04-09T07:09:25.195Z,5.70
2019-04-09T07:12:30.500Z,5.82
2019-04-09T07:15:17.891Z,5.95
2019-04-09T07:18:13.245Z,6.06
2019-04-09T07:20:59.277Z,6.06
2019-04-09T07:23:34.626Z,6.04
2019-04-09T07:26:14.089Z,6.10
2019-04-09T07:28:48.881Z,6.08
2019-04-09T07:31:50.791Z,6.24
2019-04-09T07:34:51.450Z,6.24
2019-04-09T07:37:46.351Z,6.38
2019-04-09T07:40:35.185Z,6.55
2019-04-09T07:43:30.035Z,6.74
2019-04-09T07:46:16.387Z,6.76
2019-04-09T07:49:09.785Z,6.70
2019-04-09T07:52:11.066Z,6.89
2019-04-09T07:55:03.285Z,7.07
2019-04-09T07:57:48.573Z,7.07
2019-04-09T08:00:27.759Z,7.10
2019-04-09T08:03:11.709Z,7.23
2019-04-09T08:05:51.950Z,7.42
2019-04-09T08:08:44.532Z,7.48
2019-04-09T08:11:33.103Z,7.31
2019-04-09T08:14:25.823Z,7.46
2019-04-09T08:17:12.266Z,7.50
2019-04-09T08:19:47.311Z,7.48
2019-04-09T08:22:26.650Z,7.55
2019-04-09T08:25:01.751Z,7.69
2019-04-09T08:27:41.710Z,7.73
2019-04-09T08:30:30.552Z,7.77
2019-04-09T08:33:22.791Z,8.14
2019-04-09T08:36:02.181Z,8.20
2019-04-09T08:39:00.396Z,7.81
2019-04-09T08:41:44.430Z,7.51
2019-04-09T08:44:18.468Z,7.47
2019-04-09T08:46:58.119Z,7.73
2019-04-09T08:49:57.042Z,8.01
2019-04-09T08:52:45.663Z,8.14
2019-04-09T08:55:16.324Z,8.34
2019-04-09T08:57:50.471Z,8.13
2019-04-09T09:01:18.828Z,8.22
2019-04-09T09:03:25.225Z,8.53
2019-04-09T09:06:21.722Z,8.69
2019-04-09T09:08:59.425Z,8.86
2019-04-09T09:11:35.060Z,8.95
2019-04-09T09:14:07.897Z,9.19
2019-04-09T09:16:57.309Z,9.46
2019-04-09T09:19:38.670Z,9.54
2019-04-09T09:22:44.407Z,9.85
2019-04-09T09:25:41.819Z,10.08
2019-04-09T09:28:19.057Z,9.76
2019-04-09T09:31:28.720Z,9.66
2019-04-09T09:34:08.609Z,9.87
2019-04-09T09:36:54.239Z,9.43
2019-04-09T09:39:39.778Z,9.57
2019-04-09T09:42:29.195Z,9.57
2019-04-09T09:45:05.642Z,8.98
2019-04-09T09:47:48.496Z,8.95
2019-04-09T09:50:41.366Z,8.64
2019-04-09T09:53:19.789Z,9.00
2019-04-09T09:56:15.165Z,8.75
2019-04-09T09:58:55.256Z,9.23
2019-04-09T10:01:34.568Z,9.74
2019-04-09T10:04:20.649Z,10.27
2019-04-09T10:06:57.102Z,9.62
2019-04-09T10:09:49.333Z,9.61
2019-04-09T10:12:39.633Z,9.61
2019-04-09T10:15:23.150Z,8.90
2019-04-09T10:18:02.958Z,9.04
2019-04-09T10:20:44.030Z,9.44
2019-04-09T10:23:19.554Z,9.29
2019-04-09T10:26:14.401Z,9.21
2019-04-09T10:29:15.511Z,9.25
2019-04-09T10:32:00.754Z,9.53
2019-04-09T10:34:37.981Z,9.35
2019-04-09T10:37:30.572Z,9.28
2019-04-09T10:40:12.075Z,9.27
2019-04-09T10:42:58.660Z,9.64
2019-04-09T10:45:49.099Z,9.88
2019-04-09T10:48:24.655Z,9.70
2019-04-09T10:51:12.958Z,10.04
2019-04-09T10:53:46.146Z,9.84
2019-04-09T10:56:27.161Z,9.91
2019-04-09T10:59:11.442Z,9.58
2019-04-09T11:02:12.461Z,9.20
2019-04-09T11:04:49.189Z,9.76
2019-04-09T11:07:36.028Z,10.31
2019-04-09T11:10:25.560Z,10.31
2019-04-09T11:13:21.424Z,10.18
2019-04-09T11:16:10.821Z,9.68
2019-04-09T11:19:19.284Z,9.68
2019-04-09T11:21:52.282Z,9.73
2019-04-09T11:24:42.025Z,9.73
2019-04-09T11:27:42.420Z,9.85
2019-04-09T11:30:32.668Z,9.85
2019-04-09T11:33:19.118Z,9.63
2019-04-09T11:36:13.762Z,9.81
2019-04-09T11:39:03.920Z,9.56
2019-04-09T11:41:44.429Z,9.52
2019-04-09T11:44:22.241Z,10.22
2019-04-09T11:47:11.897Z,10.15
2019-04-09T11:50:04.108Z,10.67
2019-04-09T11:52:43.136Z,10.67
2019-04-09T11:55:29.625Z,10.81
2019-04-09T11:58:20.167Z,9.96
2019-04-09T12:01:12.376Z,9.92
2019-04-09T12:03:47.396Z,9.92
2019-04-09T12:06:47.193Z,9.98
2019-04-09T12:09:32.953Z,9.28
2019-04-09T12:12:20.140Z,9.79
2019-04-09T12:15:16.195Z,9.79
2019-04-09T12:18:11.706Z,10.62
2019-04-09T12:20:50.971Z,10.62
2019-04-09T12:23:40.548Z,11.32
2019-04-09T12:26:17.771Z,11.94
2019-04-09T12:29:16.771Z,11.60
2019-04-09T12:31:46.159Z,10.91
2019-04-09T12:34:26.356Z,10.21
2019-04-09T12:37:22.354Z,10.10
2019-04-09T12:40:08.564Z,10.09
2019-04-09T12:43:05.121Z,10.64
2019-04-09T12:49:02.149Z,10.34
2019-04-09T12:51:47.209Z,10.06
2019-04-09T12:54:30.778Z,10.06
2019-04-09T12:57:13.385Z,10.07
2019-04-09T12:59:59.205Z,10.14
2019-04-09T13:02:44.763Z,10.12
2019-04-09T13:05:46.489Z,10.09
2019-04-09T13:08:34.023Z,9.82
2019-04-09T13:11:22.407Z,9.98
2019-04-09T13:14:07.619Z,10.09
2019-04-09T13:16:47.709Z,10.23
2019-04-09T13:19:33.495Z,10.23
2019-04-09T13:22:09.731Z,10.15
2019-04-09T13:24:59.249Z,10.06
2019-04-09T13:27:44.874Z,10.04
2019-04-09T13:30:44.068Z,10.31
2019-04-09T13:33:22.581Z,10.31
2019-04-09T13:36:22.043Z,10.94
2019-04-09T13:39:09.311Z,11.79
2019-04-09T13:41:58.639Z,12.04
2019-04-09T13:44:47.974Z,11.46
2019-04-09T13:47:37.436Z,10.91
2019-04-09T13:50:22.348Z,10.52
2019-04-09T13:52:49.033Z,10.16
2019-04-09T13:55:16.463Z,10.07
2019-04-09T13:57:43.210Z,10.88
2019-04-09T14:00:12.692Z,11.43
2019-04-09T14:02:54.257Z,11.84
2019-04-09T14:05:19.996Z,11.81
2019-04-09T14:07:46.785Z,12.55
2019-04-09T14:10:14.451Z,13.32
2019-04-09T14:12:41.252Z,13.87
2019-04-09T14:15:09.961Z,12.89
2019-04-09T14:17:36.977Z,11.75
2019-04-09T14:20:04.974Z,11.41
2019-04-09T14:22:32.624Z,11.42
2019-04-09T14:24:59.662Z,11.12
2019-04-09T14:27:31.551Z,10.80
2019-04-09T14:29:55.846Z,11.34
2019-04-09T14:32:23.553Z,12.25
2019-04-09T14:34:51.005Z,12.30
2019-04-09T14:37:18.192Z,12.83
2019-04-09T14:39:47.819Z,12.91
2019-04-09T14:42:15.351Z,12.81
2019-04-09T14:44:42.121Z,12.85
2019-04-09T14:47:08.933Z,13.27
2019-04-09T14:49:35.590Z,13.02
2019-04-09T14:52:02.865Z,12.41
2019-04-09T14:54:29.893Z,12.29
2019-04-09T14:56:56.624Z,12.10
2019-04-09T14:59:24.233Z,12.31
2019-04-09T15:01:51.222Z,13.04
2019-04-09T15:04:18.502Z,13.11
2019-04-09T15:06:45.233Z,13.09
2019-04-09T15:09:12.092Z,12.46
2019-04-09T15:11:38.770Z,12.99
2019-04-09T15:14:06.930Z,12.68
2019-04-09T15:16:34.587Z,12.46
2019-04-09T15:19:01.274Z,12.04
2019-04-09T15:21:39.487Z,11.48
2019-04-09T15:24:07.145Z,12.06
2019-04-09T15:26:34.481Z,12.00
2019-04-09T15:29:02.493Z,12.09
2019-04-09T15:31:29.394Z,11.87
2019-04-09T15:33:56.067Z,12.29
2019-04-09T15:36:22.926Z,12.58
2019-04-09T15:38:50.941Z,12.49
2019-04-09T15:41:18.633Z,12.62
2019-04-09T15:43:45.549Z,12.74
2019-04-09T15:46:13.072Z,12.59
2019-04-09T15:48:40.648Z,12.11
2019-04-09T15:51:08.599Z,12.04
2019-04-09T15:53:38.105Z,11.27
2019-04-09T15:56:04.461Z,10.95
2019-04-09T15:58:31.111Z,11.05
2019-04-09T16:00:58.251Z,11.00
2019-04-09T16:03:37.268Z,11.12
2019-04-09T16:05:56.952Z,11.03
2019-04-09T16:08:23.958Z,11.04
2019-04-09T16:10:50.653Z,11.14
2019-04-09T16:13:18.386Z,11.15
2019-04-09T16:15:45.804Z,10.76
2019-04-09T16:18:13.614Z,10.06
2019-04-09T16:20:42.972Z,10.12
2019-04-09T16:23:09.686Z,10.21
2019-04-09T16:25:36.467Z,10.61
2019-04-09T16:28:03.303Z,10.35
2019-04-09T16:30:30.035Z,10.30
2019-04-09T16:33:08.664Z,10.30
2019-04-09T16:38:10.105Z,10.07
2019-04-09T16:40:37.359Z,9.78
2019-04-09T16:43:04.811Z,9.39
2019-04-09T16:45:33.097Z,9.53
2019-04-09T16:48:00.152Z,9.37
2019-04-09T16:50:27.245Z,9.58
2019-04-09T16:52:53.917Z,9.57
2019-04-09T16:55:22.014Z,9.53
2019-04-09T16:57:57.309Z,8.99
2019-04-09T17:00:22.366Z,8.99
2019-04-09T17:02:47.289Z,9.03
2019-04-09T17:05:14.012Z,8.90
2019-04-09T17:07:42.183Z,8.95
2019-04-09T17:10:12.040Z,8.85
2019-04-09T17:12:42.387Z,8.84
2019-04-09T17:15:09.374Z,8.80
2019-04-09T17:17:36.072Z,8.65
2019-04-09T17:20:04.363Z,8.39
2019-04-09T17:22:32.323Z,8.27
2019-04-09T17:24:59.755Z,8.06
2019-04-09T17:27:26.439Z,8.06
2019-04-09T17:29:53.356Z,8.27
2019-04-09T17:32:21.321Z,8.23
2019-04-09T17:34:48.214Z,8.17
2019-04-09T17:37:14.898Z,7.94
2019-04-09T17:39:41.746Z,7.85
2019-04-09T17:42:11.501Z,7.73
2019-04-09T17:44:37.439Z,7.61
2019-04-09T17:47:04.269Z,7.45
2019-04-09T17:49:33.368Z,7.18
2019-04-09T17:52:01.807Z,7.17
2019-04-09T17:54:28.534Z,7.15
2019-04-09T17:57:14.945Z,6.98
2019-04-09T17:59:42.845Z,6.94
2019-04-09T18:02:10.001Z,6.82
2019-04-09T18:04:44.301Z,6.73
2019-04-09T18:07:05.654Z,6.71
2019-04-09T18:09:32.324Z,6.73
2019-04-09T18:11:59.997Z,6.69
2019-04-09T18:14:26.976Z,6.66
2019-04-09T18:16:53.787Z,6.46
2019-04-09T18:19:22.936Z,6.36
2019-04-09T18:21:51.074Z,6.32
2019-04-09T18:24:18.406Z,6.22
2019-04-09T18:26:45.240Z,6.18
2019-04-09T18:29:11.981Z,6.10
2019-04-09T18:31:40.804Z,6.01
2019-04-09T18:34:08.899Z,5.97
2019-04-09T18:36:36.725Z,5.87
2019-04-09T18:39:07.565Z,6.00
2019-04-09T18:41:36.690Z,5.93
2019-04-09T18:44:04.424Z,5.94
2019-04-09T18:46:32.257Z,5.99
2019-04-09T18:49:03.459Z,5.86
2019-04-09T18:51:31.326Z,5.84
2019-04-09T18:53:58.194Z,5.69
2019-04-09T18:56:25.573Z,5.64
2019-04-09T18:58:52.322Z,5.71
2019-04-09T19:01:19.319Z,5.60
2019-04-09T19:03:46.436Z,5.70
2019-04-09T19:06:14.351Z,5.60
2019-04-09T19:08:41.355Z,5.44
2019-04-09T19:11:08.035Z,5.45
2019-04-09T19:13:35.289Z,5.28
2019-04-09T19:16:02.122Z,5.13
2019-04-09T19:18:29.789Z,4.84
2019-04-09T19:20:56.653Z,4.83
2019-04-09T19:23:24.299Z,4.83
2019-04-09T19:25:51.105Z,4.74
2019-04-09T19:28:19.227Z,4.67
2019-04-09T19:30:46.910Z,4.67
2019-04-09T19:33:14.067Z,4.48
2019-04-09T19:35:41.731Z,4.45
2019-04-09T19:38:12.145Z,4.31
2019-04-09T19:40:39.064Z,4.23
2019-04-09T19:43:06.258Z,4.22
2019-04-09T19:45:37.476Z,4.15
2019-04-09T19:48:04.484Z,4.10
2019-04-09T19:50:32.882Z,4.11
2019-04-09T19:53:00.229Z,4.05
2019-04-09T19:55:28.525Z,3.98
2019-04-09T19:57:57.252Z,3.91
2019-04-09T20:00:25.548Z,3.88
2019-04-09T20:02:52.325Z,3.85
2019-04-09T20:05:27.869Z,3.76
2019-04-09T20:07:47.749Z,3.71
2019-04-09T20:10:34.904Z,3.63
2019-04-09T20:13:02.675Z,3.65
2019-04-09T20:15:31.118Z,3.62
2019-04-09T20:17:59.010Z,3.58
2019-04-09T20:20:26.630Z,3.60
2019-04-09T20:22:54.665Z,3.53
2019-04-09T20:25:21.787Z,3.43
2019-04-09T20:27:49.563Z,3.47
2019-04-09T20:30:16.478Z,3.43
2019-04-09T20:32:43.269Z,3.35
2019-04-09T20:35:14.253Z,3.30
2019-04-09T20:37:40.071Z,3.25
2019-04-09T20:40:09.845Z,3.09
2019-04-09T20:42:37.154Z,3.10
2019-04-09T20:45:05.056Z,3.06
2019-04-09T20:47:31.831Z,3.07
2019-04-09T20:49:59.002Z,3.11
2019-04-09T20:52:25.986Z,3.27
2019-04-09T20:54:57.563Z,3.24
2019-04-09T20:57:24.594Z,3.13
2019-04-09T21:00:06.021Z,3.06
2019-04-09T21:02:48.883Z,2.98
2019-04-09T21:05:18.937Z,2.94
2019-04-09T21:07:46.779Z,2.94
2019-04-09T21:10:14.894Z,2.91
2019-04-09T21:12:42.673Z,2.99
2019-04-09T21:15:10.306Z,3.13
2019-04-09T21:17:37.838Z,3.20
2019-04-09T21:20:05.490Z,3.10
2019-04-09T21:22:32.684Z,3.24
2019-04-09T21:25:00.218Z,3.37
2019-04-09T21:27:27.637Z,3.37
2019-04-09T21:29:55.132Z,3.01
2019-04-09T21:32:22.235Z,3.00
2019-04-09T21:34:48.982Z,2.86
2019-04-09T21:37:15.677Z,2.94
2019-04-09T21:39:43.395Z,2.83
2019-04-09T21:42:10.139Z,2.82
2019-04-09T21:44:36.970Z,2.57
2019-04-09T21:47:03.892Z,2.68
2019-04-09T21:49:31.731Z,2.65
2019-04-09T21:51:58.750Z,2.68
2019-04-09T21:54:27.340Z,2.61
2019-04-09T21:56:54.575Z,2.68
2019-04-09T21:59:22.419Z,2.59
2019-04-09T22:01:49.358Z,2.57
2019-04-09T22:04:16.972Z,2.49
2019-04-09T22:06:44.129Z,2.52
2019-04-09T22:09:12.307Z,2.51
2019-04-09T22:11:39.294Z,2.60
2019-04-09T22:14:06.109Z,2.72
2019-04-09T22:16:33.819Z,2.62
2019-04-09T22:19:00.563Z,2.56
2019-04-09T22:21:28.091Z,2.44
2019-04-09T22:23:56.657Z,2.38
2019-04-09T22:26:25.400Z,2.23
2019-04-09T22:28:52.482Z,2.27
2019-04-09T22:31:19.608Z,2.26
2019-04-09T22:33:46.799Z,2.21
2019-04-09T22:36:13.966Z,2.25
2019-04-09T22:38:41.540Z,2.26
2019-04-09T22:41:09.714Z,2.17
2019-04-09T22:43:37.137Z,2.19
2019-04-09T22:46:04.203Z,2.14
2019-04-09T22:48:31.067Z,2.06
2019-04-09T22:50:58.821Z,1.98
2019-04-09T22:53:25.721Z,1.96
2019-04-09T22:55:52.422Z,1.89
2019-04-09T22:58:19.198Z,1.83
2019-04-09T23:01:05.697Z,1.89
2019-04-09T23:03:42.055Z,1.79
2019-04-09T23:06:43.718Z,1.75
2019-04-09T23:09:43.037Z,1.81
2019-04-09T23:12:17.489Z,1.73
2019-04-09T23:14:44.327Z,1.70
2019-04-09T23:17:11.348Z,1.61
2019-04-09T23:19:38.182Z,1.47
2019-04-09T23:22:06.712Z,1.49
2019-04-09T23:24:33.654Z,1.44
2019-04-09T23:27:00.345Z,1.45
2019-04-09T23:29:27.022Z,1.48
2019-04-09T23:31:54.927Z,1.45
2019-04-09T23:34:21.901Z,1.43
2019-04-09T23:36:56.865Z,1.40
2019-04-09T23:39:18.080Z,1.29
2019-04-09T23:41:44.794Z,1.35
2019-04-09T23:44:11.472Z,1.30
2019-04-09T23:46:39.389Z,1.27
2019-04-09T23:49:06.439Z,1.36
2019-04-09T23:51:33.308Z,1.24
2019-04-09T23:54:00.074Z,1.14
2019-04-09T23:56:27.411Z,1.17
2019-04-09T23:58:54.121Z,1.05
